Terminal Aerodrome Forecast
Issued by NWS

Home | Current Version | Previous Version | Text Only | Print | Product List | Glossary On
Versions: 1 2 3 4 5 6 7 8 9 10 11 12 13 14 15
653
FTUS45 KRIW 180540
TAFRKS
TAF
KRKS 180540Z 1806/1906 25018KT P6SM SCT040
     FM181700 26022G30KT P6SM BKN060
     FM190100 26017KT P6SM BKN200=

USA.gov is the U.S. government's official web portal to all federal, state and local government web resources and services.